Etusivu
METAR-TAF:

METAR-TAF

Lentoasemat :

Blue River, Brittiläinen Kolumbia, Kanada

Leveyspiiri: 52-08N, Pituuspiiri: 119-18W, korkeus merenpinnasta: 679 m

Tämänhetkinen sää

Tämä raportti tehtiin 25 minuuttia sitten, kello 20.00 UTC
tyyntä
Lämpötila -5°C
Kosteus 79%
Ilmanpaine 1026 hPa
Näkyvyys: 24.1 km
Muutamia pilviä 18000 ft:n korkeudessa

METAR: CYCP 032000Z 00000KT 15SM FEW180 M05/M08 A3029 RMK AC1 AC TR SLP309

Aika: 12:25 (20:25 UTC)


TAF: puuttuu

Säähavainnot ja -ennusteet yli 4000 lentoasemalta (METAR- ja TAF-raportit).

Käytössä olevat sääasemat on merkitty karttaan keltaisilla ja punaisilla pisteillä.

Aseta hiiri pisteen päälle nähdäksesi sääaseman nimen.

Klikkaa sitten nähdäksesi säähavainnot ja -ennusteet.

Kartan vaihtaminen: klikkaa mustalla rastilla varustettuja vihreitä pisteitä, niin voit zoomata sisään; viivalla varustettua vihreää pistettä, niin voit zoomata ulos tai vihreitä nuolia, niin pääset viereisille kartoille.


METAR-TAF: